sensor_id;sensor_type;location;lat;lon;timestamp;P1;durP1;ratioP1;P2;durP2;ratioP2
59294;SDS011;45067;44.654;20.200;2023-03-14T00:00:03;10.35;;;6.10;;
59294;SDS011;45067;44.654;20.200;2023-03-14T00:05:34;8.80;;;5.30;;
59294;SDS011;45067;44.654;20.200;2023-03-14T00:08:00;15.90;;;5.68;;
59294;SDS011;45067;44.654;20.200;2023-03-14T00:10:26;8.88;;;5.70;;
59294;SDS011;45067;44.654;20.200;2023-03-14T00:12:52;10.80;;;5.45;;
59294;SDS011;45067;44.654;20.200;2023-03-14T00:15:18;9.50;;;5.80;;
59294;SDS011;45067;44.654;20.200;2023-03-14T00:20:47;9.32;;;5.13;;
59294;SDS011;45067;44.654;20.200;2023-03-14T00:23:13;7.82;;;4.97;;
59294;SDS011;45067;44.654;20.200;2023-03-14T00:25:39;10.32;;;5.25;;
59294;SDS011;45067;44.654;20.200;2023-03-14T00:28:05;8.50;;;5.05;;
59294;SDS011;45067;44.654;20.200;2023-03-14T00:30:31;10.32;;;5.50;;
59294;SDS011;45067;44.654;20.200;2023-03-14T00:36:20;8.25;;;4.93;;
59294;SDS011;45067;44.654;20.200;2023-03-14T00:38:47;9.40;;;5.07;;
59294;SDS011;45067;44.654;20.200;2023-03-14T00:41:15;9.93;;;5.15;;
59294;SDS011;45067;44.654;20.200;2023-03-14T00:43:41;9.30;;;5.03;;
59294;SDS011;45067;44.654;20.200;2023-03-14T00:46:08;9.63;;;5.40;;
59294;SDS011;45067;44.654;20.200;2023-03-14T00:48:34;8.52;;;4.88;;
59294;SDS011;45067;44.654;20.200;2023-03-14T00:51:01;9.60;;;4.80;;
59294;SDS011;45067;44.654;20.200;2023-03-14T00:53:27;9.93;;;5.03;;
59294;SDS011;45067;44.654;20.200;2023-03-14T00:55:53;9.25;;;4.80;;
59294;SDS011;45067;44.654;20.200;2023-03-14T00:58:19;8.80;;;5.43;;
59294;SDS011;45067;44.654;20.200;2023-03-14T01:00:45;9.20;;;5.50;;
59294;SDS011;45067;44.654;20.200;2023-03-14T01:03:12;8.32;;;5.13;;
59294;SDS011;45067;44.654;20.200;2023-03-14T01:05:38;9.75;;;4.90;;
59294;SDS011;45067;44.654;20.200;2023-03-14T01:08:05;7.85;;;5.18;;
59294;SDS011;45067;44.654;20.200;2023-03-14T01:10:31;8.77;;;4.93;;
59294;SDS011;45067;44.654;20.200;2023-03-14T01:12:58;7.63;;;4.78;;
59294;SDS011;45067;44.654;20.200;2023-03-14T01:15:24;8.40;;;5.15;;
59294;SDS011;45067;44.654;20.200;2023-03-14T01:20:53;8.05;;;5.10;;
59294;SDS011;45067;44.654;20.200;2023-03-14T01:23:19;9.25;;;5.13;;
59294;SDS011;45067;44.654;20.200;2023-03-14T01:25:45;10.82;;;5.32;;
59294;SDS011;45067;44.654;20.200;2023-03-14T01:28:11;7.38;;;4.68;;
59294;SDS011;45067;44.654;20.200;2023-03-14T01:30:37;6.55;;;4.32;;
59294;SDS011;45067;44.654;20.200;2023-03-14T01:36:07;8.57;;;4.85;;
59294;SDS011;45067;44.654;20.200;2023-03-14T01:38:35;11.38;;;5.30;;
59294;SDS011;45067;44.654;20.200;2023-03-14T01:41:01;9.43;;;5.18;;
59294;SDS011;45067;44.654;20.200;2023-03-14T01:43:27;7.38;;;4.60;;
59294;SDS011;45067;44.654;20.200;2023-03-14T01:57:05;9.95;;;5.40;;
59294;SDS011;45067;44.654;20.200;2023-03-14T01:59:32;9.27;;;5.18;;
59294;SDS011;45067;44.654;20.200;2023-03-14T02:02:00;9.32;;;5.35;;
59294;SDS011;45067;44.654;20.200;2023-03-14T02:04:27;9.40;;;5.20;;
59294;SDS011;45067;44.654;20.200;2023-03-14T02:07:01;9.52;;;5.40;;
59294;SDS011;45067;44.654;20.200;2023-03-14T02:09:29;9.63;;;5.30;;
59294;SDS011;45067;44.654;20.200;2023-03-14T02:11:56;8.45;;;4.85;;
59294;SDS011;45067;44.654;20.200;2023-03-14T02:14:25;9.15;;;5.13;;
59294;SDS011;45067;44.654;20.200;2023-03-14T02:16:53;8.48;;;4.97;;
59294;SDS011;45067;44.654;20.200;2023-03-14T02:19:20;9.10;;;5.13;;
59294;SDS011;45067;44.654;20.200;2023-03-14T02:21:51;9.75;;;4.50;;
59294;SDS011;45067;44.654;20.200;2023-03-14T02:29:26;8.50;;;4.55;;
59294;SDS011;45067;44.654;20.200;2023-03-14T02:31:53;9.20;;;4.60;;
59294;SDS011;45067;44.654;20.200;2023-03-14T02:34:19;9.88;;;4.45;;
59294;SDS011;45067;44.654;20.200;2023-03-14T02:36:45;8.85;;;4.22;;
59294;SDS011;45067;44.654;20.200;2023-03-14T02:41:38;7.95;;;4.68;;
59294;SDS011;45067;44.654;20.200;2023-03-14T02:44:04;7.80;;;4.40;;
59294;SDS011;45067;44.654;20.200;2023-03-14T02:46:30;7.80;;;4.63;;
59294;SDS011;45067;44.654;20.200;2023-03-14T02:51:23;8.38;;;4.53;;
59294;SDS011;45067;44.654;20.200;2023-03-14T02:53:49;7.95;;;4.15;;
59294;SDS011;45067;44.654;20.200;2023-03-14T02:56:15;9.30;;;4.95;;
59294;SDS011;45067;44.654;20.200;2023-03-14T02:58:41;8.82;;;4.88;;
59294;SDS011;45067;44.654;20.200;2023-03-14T03:01:07;8.30;;;4.68;;
59294;SDS011;45067;44.654;20.200;2023-03-14T03:06:37;6.88;;;4.18;;
59294;SDS011;45067;44.654;20.200;2023-03-14T03:09:03;7.35;;;4.68;;
59294;SDS011;45067;44.654;20.200;2023-03-14T03:11:29;8.75;;;4.47;;
59294;SDS011;45067;44.654;20.200;2023-03-14T03:13:56;7.85;;;4.47;;
59294;SDS011;45067;44.654;20.200;2023-03-14T03:16:22;7.20;;;4.13;;
59294;SDS011;45067;44.654;20.200;2023-03-14T03:21:52;7.75;;;4.30;;
59294;SDS011;45067;44.654;20.200;2023-03-14T03:24:18;8.00;;;4.47;;
59294;SDS011;45067;44.654;20.200;2023-03-14T03:26:44;7.40;;;4.28;;
59294;SDS011;45067;44.654;20.200;2023-03-14T03:29:10;9.73;;;4.65;;
59294;SDS011;45067;44.654;20.200;2023-03-14T03:31:36;7.90;;;4.65;;
59294;SDS011;45067;44.654;20.200;2023-03-14T03:37:25;7.07;;;4.63;;
59294;SDS011;45067;44.654;20.200;2023-03-14T03:39:51;9.27;;;4.70;;
59294;SDS011;45067;44.654;20.200;2023-03-14T03:42:18;8.23;;;4.72;;
59294;SDS011;45067;44.654;20.200;2023-03-14T03:44:44;7.90;;;4.72;;
59294;SDS011;45067;44.654;20.200;2023-03-14T03:47:10;8.40;;;3.90;;
59294;SDS011;45067;44.654;20.200;2023-03-14T03:49:36;9.18;;;4.68;;
59294;SDS011;45067;44.654;20.200;2023-03-14T03:52:02;8.13;;;4.88;;
59294;SDS011;45067;44.654;20.200;2023-03-14T03:54:28;7.55;;;4.45;;
59294;SDS011;45067;44.654;20.200;2023-03-14T03:56:54;7.85;;;4.88;;
59294;SDS011;45067;44.654;20.200;2023-03-14T03:59:21;8.05;;;4.35;;
59294;SDS011;45067;44.654;20.200;2023-03-14T04:01:47;7.60;;;3.75;;
59294;SDS011;45067;44.654;20.200;2023-03-14T04:04:13;7.70;;;4.25;;
59294;SDS011;45067;44.654;20.200;2023-03-14T04:06:39;6.78;;;4.40;;
59294;SDS011;45067;44.654;20.200;2023-03-14T04:09:06;7.45;;;4.05;;
59294;SDS011;45067;44.654;20.200;2023-03-14T04:11:32;8.85;;;4.53;;
59294;SDS011;45067;44.654;20.200;2023-03-14T04:13:58;8.32;;;4.43;;
59294;SDS011;45067;44.654;20.200;2023-03-14T04:16:25;7.30;;;4.30;;
59294;SDS011;45067;44.654;20.200;2023-03-14T04:21:55;7.57;;;4.30;;
59294;SDS011;45067;44.654;20.200;2023-03-14T04:24:21;8.68;;;4.22;;
59294;SDS011;45067;44.654;20.200;2023-03-14T04:26:47;8.75;;;4.35;;
59294;SDS011;45067;44.654;20.200;2023-03-14T04:29:13;9.18;;;4.85;;
59294;SDS011;45067;44.654;20.200;2023-03-14T04:31:39;8.40;;;4.50;;
59294;SDS011;45067;44.654;20.200;2023-03-14T04:37:09;10.98;;;4.75;;
59294;SDS011;45067;44.654;20.200;2023-03-14T04:39:35;9.02;;;4.60;;
59294;SDS011;45067;44.654;20.200;2023-03-14T04:42:01;6.80;;;4.10;;
59294;SDS011;45067;44.654;20.200;2023-03-14T04:44:27;7.88;;;4.50;;
59294;SDS011;45067;44.654;20.200;2023-03-14T04:46:53;7.88;;;4.63;;
59294;SDS011;45067;44.654;20.200;2023-03-14T04:52:23;7.70;;;4.25;;
59294;SDS011;45067;44.654;20.200;2023-03-14T04:54:49;9.95;;;5.07;;
59294;SDS011;45067;44.654;20.200;2023-03-14T04:57:15;9.20;;;4.82;;
59294;SDS011;45067;44.654;20.200;2023-03-14T04:59:41;11.90;;;4.70;;
59294;SDS011;45067;44.654;20.200;2023-03-14T05:02:07;8.57;;;4.18;;
59294;SDS011;45067;44.654;20.200;2023-03-14T05:04:33;9.57;;;4.10;;
59294;SDS011;45067;44.654;20.200;2023-03-14T05:06:59;8.40;;;4.28;;
59294;SDS011;45067;44.654;20.200;2023-03-14T05:09:26;9.50;;;4.55;;
59294;SDS011;45067;44.654;20.200;2023-03-14T05:11:52;10.40;;;4.65;;
59294;SDS011;45067;44.654;20.200;2023-03-14T05:14:18;9.93;;;4.90;;
59294;SDS011;45067;44.654;20.200;2023-03-14T05:16:44;7.55;;;4.38;;
59294;SDS011;45067;44.654;20.200;2023-03-14T05:22:14;8.20;;;4.53;;
59294;SDS011;45067;44.654;20.200;2023-03-14T05:24:40;7.53;;;4.78;;
59294;SDS011;45067;44.654;20.200;2023-03-14T05:27:06;9.80;;;5.13;;
59294;SDS011;45067;44.654;20.200;2023-03-14T05:29:32;9.25;;;5.20;;
59294;SDS011;45067;44.654;20.200;2023-03-14T05:31:58;10.63;;;4.95;;
59294;SDS011;45067;44.654;20.200;2023-03-14T05:37:28;11.82;;;5.20;;
59294;SDS011;45067;44.654;20.200;2023-03-14T05:39:54;9.27;;;4.75;;
59294;SDS011;45067;44.654;20.200;2023-03-14T05:42:23;8.93;;;4.43;;
59294;SDS011;45067;44.654;20.200;2023-03-14T05:47:51;10.35;;;5.00;;
59294;SDS011;45067;44.654;20.200;2023-03-14T05:50:17;13.48;;;5.43;;
59294;SDS011;45067;44.654;20.200;2023-03-14T05:52:43;8.35;;;4.90;;
59294;SDS011;45067;44.654;20.200;2023-03-14T05:55:09;10.55;;;5.28;;
59294;SDS011;45067;44.654;20.200;2023-03-14T05:57:35;13.50;;;5.82;;
59294;SDS011;45067;44.654;20.200;2023-03-14T06:00:01;10.13;;;5.32;;
59294;SDS011;45067;44.654;20.200;2023-03-14T06:02:27;10.60;;;5.38;;
59294;SDS011;45067;44.654;20.200;2023-03-14T06:04:53;10.27;;;4.93;;
59294;SDS011;45067;44.654;20.200;2023-03-14T06:07:21;11.93;;;4.82;;
59294;SDS011;45067;44.654;20.200;2023-03-14T06:09:47;9.73;;;4.78;;
59294;SDS011;45067;44.654;20.200;2023-03-14T06:12:13;12.95;;;4.80;;
59294;SDS011;45067;44.654;20.200;2023-03-14T06:14:39;8.10;;;4.63;;
59294;SDS011;45067;44.654;20.200;2023-03-14T06:17:05;8.75;;;4.00;;
59294;SDS011;45067;44.654;20.200;2023-03-14T06:22:34;9.07;;;4.80;;
59294;SDS011;45067;44.654;20.200;2023-03-14T06:25:00;10.43;;;4.60;;
59294;SDS011;45067;44.654;20.200;2023-03-14T06:27:26;11.18;;;4.72;;
59294;SDS011;45067;44.654;20.200;2023-03-14T06:29:52;12.55;;;4.97;;
59294;SDS011;45067;44.654;20.200;2023-03-14T06:32:18;10.75;;;5.10;;
59294;SDS011;45067;44.654;20.200;2023-03-14T06:37:49;7.95;;;4.68;;
59294;SDS011;45067;44.654;20.200;2023-03-14T06:40:15;9.07;;;4.50;;
59294;SDS011;45067;44.654;20.200;2023-03-14T06:42:45;9.13;;;4.70;;
59294;SDS011;45067;44.654;20.200;2023-03-14T06:45:11;10.77;;;4.88;;
59294;SDS011;45067;44.654;20.200;2023-03-14T06:47:37;9.50;;;5.43;;
59294;SDS011;45067;44.654;20.200;2023-03-14T06:50:04;10.55;;;5.32;;
59294;SDS011;45067;44.654;20.200;2023-03-14T06:52:30;11.30;;;5.43;;
59294;SDS011;45067;44.654;20.200;2023-03-14T06:54:56;9.50;;;4.85;;
59294;SDS011;45067;44.654;20.200;2023-03-14T06:57:22;10.80;;;5.43;;
59294;SDS011;45067;44.654;20.200;2023-03-14T06:59:48;10.18;;;5.80;;
59294;SDS011;45067;44.654;20.200;2023-03-14T07:02:14;9.77;;;5.30;;
59294;SDS011;45067;44.654;20.200;2023-03-14T07:07:44;11.00;;;4.72;;
59294;SDS011;45067;44.654;20.200;2023-03-14T07:10:10;8.20;;;4.65;;
59294;SDS011;45067;44.654;20.200;2023-03-14T07:12:36;11.20;;;4.75;;
59294;SDS011;45067;44.654;20.200;2023-03-14T07:15:03;11.27;;;4.95;;
59294;SDS011;45067;44.654;20.200;2023-03-14T07:17:29;10.63;;;4.80;;
59294;SDS011;45067;44.654;20.200;2023-03-14T07:22:58;8.55;;;4.90;;
59294;SDS011;45067;44.654;20.200;2023-03-14T07:25:25;8.55;;;4.80;;
59294;SDS011;45067;44.654;20.200;2023-03-14T07:27:51;10.63;;;5.00;;
59294;SDS011;45067;44.654;20.200;2023-03-14T07:30:17;9.00;;;4.80;;
59294;SDS011;45067;44.654;20.200;2023-03-14T07:32:43;12.45;;;5.10;;
59294;SDS011;45067;44.654;20.200;2023-03-14T07:35:09;11.32;;;5.47;;
59294;SDS011;45067;44.654;20.200;2023-03-14T07:37:35;12.27;;;5.93;;
59294;SDS011;45067;44.654;20.200;2023-03-14T07:40:01;11.77;;;5.55;;
59294;SDS011;45067;44.654;20.200;2023-03-14T07:42:30;14.02;;;5.53;;
59294;SDS011;45067;44.654;20.200;2023-03-14T07:44:56;7.18;;;4.13;;
59294;SDS011;45067;44.654;20.200;2023-03-14T07:47:22;11.63;;;4.70;;
59294;SDS011;45067;44.654;20.200;2023-03-14T07:52:52;9.80;;;5.65;;
59294;SDS011;45067;44.654;20.200;2023-03-14T07:55:18;8.02;;;4.38;;
59294;SDS011;45067;44.654;20.200;2023-03-14T07:57:44;9.35;;;5.43;;
59294;SDS011;45067;44.654;20.200;2023-03-14T08:00:10;11.50;;;5.25;;
59294;SDS011;45067;44.654;20.200;2023-03-14T08:02:36;8.18;;;4.60;;
59294;SDS011;45067;44.654;20.200;2023-03-14T08:08:06;11.27;;;5.07;;
59294;SDS011;45067;44.654;20.200;2023-03-14T08:10:32;9.05;;;5.00;;
59294;SDS011;45067;44.654;20.200;2023-03-14T08:12:59;9.23;;;5.50;;
59294;SDS011;45067;44.654;20.200;2023-03-14T08:15:26;10.93;;;5.30;;
59294;SDS011;45067;44.654;20.200;2023-03-14T08:17:53;8.85;;;4.97;;
59294;SDS011;45067;44.654;20.200;2023-03-14T08:20:22;9.30;;;4.75;;
59294;SDS011;45067;44.654;20.200;2023-03-14T08:22:48;10.07;;;4.63;;
59294;SDS011;45067;44.654;20.200;2023-03-14T08:25:15;8.98;;;4.57;;
59294;SDS011;45067;44.654;20.200;2023-03-14T08:27:41;12.55;;;5.10;;
59294;SDS011;45067;44.654;20.200;2023-03-14T08:30:08;10.27;;;4.95;;
59294;SDS011;45067;44.654;20.200;2023-03-14T08:32:35;7.60;;;4.35;;
59294;SDS011;45067;44.654;20.200;2023-03-14T08:38:05;11.70;;;5.18;;
59294;SDS011;45067;44.654;20.200;2023-03-14T08:40:31;8.32;;;4.78;;
59294;SDS011;45067;44.654;20.200;2023-03-14T08:42:57;7.85;;;4.53;;
59294;SDS011;45067;44.654;20.200;2023-03-14T08:45:23;9.80;;;4.90;;
59294;SDS011;45067;44.654;20.200;2023-03-14T08:47:50;10.88;;;5.05;;
59294;SDS011;45067;44.654;20.200;2023-03-14T08:50:16;8.00;;;4.57;;
59294;SDS011;45067;44.654;20.200;2023-03-14T08:52:42;10.98;;;5.15;;
59294;SDS011;45067;44.654;20.200;2023-03-14T08:55:08;8.38;;;4.70;;
59294;SDS011;45067;44.654;20.200;2023-03-14T08:57:35;11.63;;;5.22;;
59294;SDS011;45067;44.654;20.200;2023-03-14T09:00:02;10.20;;;5.18;;
59294;SDS011;45067;44.654;20.200;2023-03-14T09:02:31;9.50;;;5.00;;
59294;SDS011;45067;44.654;20.200;2023-03-14T09:08:00;8.90;;;5.40;;
59294;SDS011;45067;44.654;20.200;2023-03-14T09:10:27;8.63;;;4.75;;
59294;SDS011;45067;44.654;20.200;2023-03-14T09:12:53;8.73;;;4.85;;
59294;SDS011;45067;44.654;20.200;2023-03-14T09:15:19;8.75;;;4.20;;
59294;SDS011;45067;44.654;20.200;2023-03-14T09:17:45;7.97;;;4.68;;
59294;SDS011;45067;44.654;20.200;2023-03-14T09:23:15;14.73;;;5.13;;
59294;SDS011;45067;44.654;20.200;2023-03-14T09:25:41;12.50;;;5.55;;
59294;SDS011;45067;44.654;20.200;2023-03-14T09:28:07;9.60;;;4.72;;
59294;SDS011;45067;44.654;20.200;2023-03-14T09:30:33;8.15;;;4.25;;
59294;SDS011;45067;44.654;20.200;2023-03-14T09:32:59;10.20;;;5.30;;
59294;SDS011;45067;44.654;20.200;2023-03-14T09:35:25;8.02;;;4.50;;
59294;SDS011;45067;44.654;20.200;2023-03-14T09:37:51;8.35;;;4.63;;
59294;SDS011;45067;44.654;20.200;2023-03-14T09:40:20;8.13;;;4.55;;
59294;SDS011;45067;44.654;20.200;2023-03-14T09:42:50;8.00;;;4.50;;
59294;SDS011;45067;44.654;20.200;2023-03-14T09:45:26;8.10;;;4.95;;
59294;SDS011;45067;44.654;20.200;2023-03-14T09:47:53;10.45;;;4.50;;
59294;SDS011;45067;44.654;20.200;2023-03-14T09:53:26;10.93;;;4.70;;
59294;SDS011;45067;44.654;20.200;2023-03-14T09:55:53;11.07;;;4.70;;
59294;SDS011;45067;44.654;20.200;2023-03-14T09:58:20;10.40;;;4.63;;
59294;SDS011;45067;44.654;20.200;2023-03-14T10:00:48;7.10;;;4.43;;
59294;SDS011;45067;44.654;20.200;2023-03-14T10:03:25;9.40;;;5.03;;
59294;SDS011;45067;44.654;20.200;2023-03-14T10:05:51;7.13;;;4.20;;
59294;SDS011;45067;44.654;20.200;2023-03-14T10:08:18;8.30;;;4.57;;
59294;SDS011;45067;44.654;20.200;2023-03-14T10:10:44;10.50;;;5.15;;
59294;SDS011;45067;44.654;20.200;2023-03-14T10:13:15;8.75;;;4.43;;
59294;SDS011;45067;44.654;20.200;2023-03-14T10:15:41;10.73;;;4.55;;
59294;SDS011;45067;44.654;20.200;2023-03-14T10:18:11;8.07;;;5.13;;
59294;SDS011;45067;44.654;20.200;2023-03-14T10:20:42;8.20;;;4.88;;
59294;SDS011;45067;44.654;20.200;2023-03-14T10:26:00;11.15;;;4.47;;
59294;SDS011;45067;44.654;20.200;2023-03-14T10:30:51;9.85;;;4.75;;
59294;SDS011;45067;44.654;20.200;2023-03-14T10:33:24;9.68;;;5.25;;
59294;SDS011;45067;44.654;20.200;2023-03-14T10:38:21;8.45;;;4.40;;
59294;SDS011;45067;44.654;20.200;2023-03-14T10:40:49;8.38;;;4.53;;
59294;SDS011;45067;44.654;20.200;2023-03-14T10:43:39;12.98;;;5.05;;
59294;SDS011;45067;44.654;20.200;2023-03-14T10:46:07;8.80;;;4.60;;
59294;SDS011;45067;44.654;20.200;2023-03-14T10:48:35;8.07;;;4.10;;
59294;SDS011;45067;44.654;20.200;2023-03-14T10:51:06;8.55;;;4.35;;
59294;SDS011;45067;44.654;20.200;2023-03-14T10:53:40;7.88;;;4.75;;
59294;SDS011;45067;44.654;20.200;2023-03-14T10:56:07;7.55;;;4.20;;
59294;SDS011;45067;44.654;20.200;2023-03-14T10:58:35;8.57;;;4.60;;
59294;SDS011;45067;44.654;20.200;2023-03-14T11:01:11;9.38;;;4.60;;
59294;SDS011;45067;44.654;20.200;2023-03-14T11:03:42;8.48;;;4.70;;
59294;SDS011;45067;44.654;20.200;2023-03-14T11:06:11;7.43;;;4.30;;
59294;SDS011;45067;44.654;20.200;2023-03-14T11:08:46;8.52;;;4.25;;
59294;SDS011;45067;44.654;20.200;2023-03-14T11:11:19;8.32;;;3.97;;
59294;SDS011;45067;44.654;20.200;2023-03-14T11:13:54;9.20;;;4.50;;
59294;SDS011;45067;44.654;20.200;2023-03-14T11:16:24;7.82;;;4.22;;
59294;SDS011;45067;44.654;20.200;2023-03-14T11:27:14;9.05;;;4.50;;
59294;SDS011;45067;44.654;20.200;2023-03-14T11:29:53;7.70;;;4.35;;
59294;SDS011;45067;44.654;20.200;2023-03-14T11:35:12;7.57;;;4.25;;
59294;SDS011;45067;44.654;20.200;2023-03-14T11:37:44;10.27;;;4.57;;
59294;SDS011;45067;44.654;20.200;2023-03-14T11:40:17;10.15;;;4.40;;
59294;SDS011;45067;44.654;20.200;2023-03-14T11:42:44;8.52;;;4.47;;
59294;SDS011;45067;44.654;20.200;2023-03-14T11:45:16;7.53;;;4.28;;
59294;SDS011;45067;44.654;20.200;2023-03-14T11:47:44;8.25;;;4.32;;
59294;SDS011;45067;44.654;20.200;2023-03-14T11:52:42;9.65;;;4.95;;
59294;SDS011;45067;44.654;20.200;2023-03-14T11:55:16;9.43;;;4.15;;
59294;SDS011;45067;44.654;20.200;2023-03-14T11:57:43;7.40;;;3.80;;
59294;SDS011;45067;44.654;20.200;2023-03-14T12:00:21;8.32;;;4.40;;
59294;SDS011;45067;44.654;20.200;2023-03-14T12:02:57;10.73;;;5.32;;
59294;SDS011;45067;44.654;20.200;2023-03-14T12:05:34;11.05;;;5.85;;
59294;SDS011;45067;44.654;20.200;2023-03-14T12:10:53;9.70;;;5.00;;
59294;SDS011;45067;44.654;20.200;2023-03-14T12:13:20;10.18;;;4.78;;
59294;SDS011;45067;44.654;20.200;2023-03-14T12:15:50;10.60;;;5.88;;
59294;SDS011;45067;44.654;20.200;2023-03-14T12:18:21;13.35;;;6.65;;
59294;SDS011;45067;44.654;20.200;2023-03-14T12:24:26;11.15;;;6.40;;
59294;SDS011;45067;44.654;20.200;2023-03-14T12:26:54;10.65;;;5.60;;
59294;SDS011;45067;44.654;20.200;2023-03-14T12:29:21;8.90;;;3.88;;
59294;SDS011;45067;44.654;20.200;2023-03-14T12:31:48;6.53;;;3.33;;
59294;SDS011;45067;44.654;20.200;2023-03-14T12:37:36;6.38;;;3.65;;
59294;SDS011;45067;44.654;20.200;2023-03-14T12:56:12;6.32;;;3.65;;
59294;SDS011;45067;44.654;20.200;2023-03-14T13:01:14;6.22;;;3.72;;
59294;SDS011;45067;44.654;20.200;2023-03-14T13:03:50;5.40;;;3.50;;
59294;SDS011;45067;44.654;20.200;2023-03-14T13:11:47;7.57;;;3.35;;
59294;SDS011;45067;44.654;20.200;2023-03-14T13:14:13;6.78;;;3.95;;
59294;SDS011;45067;44.654;20.200;2023-03-14T13:16:39;7.70;;;4.03;;
59294;SDS011;45067;44.654;20.200;2023-03-14T13:19:14;7.32;;;4.00;;
59294;SDS011;45067;44.654;20.200;2023-03-14T13:21:42;8.10;;;4.53;;
59294;SDS011;45067;44.654;20.200;2023-03-14T13:24:25;7.38;;;3.92;;
59294;SDS011;45067;44.654;20.200;2023-03-14T13:26:52;7.43;;;3.85;;
59294;SDS011;45067;44.654;20.200;2023-03-14T13:29:20;9.00;;;3.95;;
59294;SDS011;45067;44.654;20.200;2023-03-14T13:31:48;6.97;;;3.83;;
59294;SDS011;45067;44.654;20.200;2023-03-14T13:34:15;10.43;;;3.88;;
59294;SDS011;45067;44.654;20.200;2023-03-14T13:36:41;6.43;;;4.18;;
59294;SDS011;45067;44.654;20.200;2023-03-14T13:39:14;7.20;;;4.10;;
59294;SDS011;45067;44.654;20.200;2023-03-14T13:41:42;9.40;;;4.68;;
59294;SDS011;45067;44.654;20.200;2023-03-14T13:44:13;7.10;;;4.05;;
59294;SDS011;45067;44.654;20.200;2023-03-14T13:46:40;12.30;;;5.70;;
59294;SDS011;45067;44.654;20.200;2023-03-14T13:49:09;8.18;;;4.05;;
59294;SDS011;45067;44.654;20.200;2023-03-14T13:51:36;7.57;;;4.70;;
59294;SDS011;45067;44.654;20.200;2023-03-14T13:54:11;7.78;;;4.88;;
59294;SDS011;45067;44.654;20.200;2023-03-14T13:56:38;9.88;;;4.65;;
59294;SDS011;45067;44.654;20.200;2023-03-14T13:59:04;8.23;;;5.00;;
59294;SDS011;45067;44.654;20.200;2023-03-14T14:01:31;9.43;;;5.30;;
59294;SDS011;45067;44.654;20.200;2023-03-14T14:04:01;7.72;;;5.07;;
59294;SDS011;45067;44.654;20.200;2023-03-14T14:06:32;8.98;;;4.97;;
59294;SDS011;45067;44.654;20.200;2023-03-14T14:08:59;9.80;;;5.40;;
59294;SDS011;45067;44.654;20.200;2023-03-14T14:13:52;8.35;;;5.35;;
59294;SDS011;45067;44.654;20.200;2023-03-14T14:16:18;10.35;;;5.82;;
59294;SDS011;45067;44.654;20.200;2023-03-14T14:18:46;9.45;;;5.43;;
59294;SDS011;45067;44.654;20.200;2023-03-14T14:21:12;9.27;;;5.63;;
59294;SDS011;45067;44.654;20.200;2023-03-14T14:23:39;10.35;;;6.30;;
59294;SDS011;45067;44.654;20.200;2023-03-14T14:26:05;12.05;;;5.55;;
59294;SDS011;45067;44.654;20.200;2023-03-14T14:28:34;11.60;;;6.30;;
59294;SDS011;45067;44.654;20.200;2023-03-14T14:31:03;10.57;;;6.03;;
59294;SDS011;45067;44.654;20.200;2023-03-14T14:33:30;9.43;;;5.40;;
59294;SDS011;45067;44.654;20.200;2023-03-14T14:39:11;9.20;;;5.65;;
59294;SDS011;45067;44.654;20.200;2023-03-14T14:41:40;8.90;;;5.32;;
59294;SDS011;45067;44.654;20.200;2023-03-14T14:44:07;11.35;;;6.00;;
59294;SDS011;45067;44.654;20.200;2023-03-14T14:46:36;13.52;;;7.68;;
59294;SDS011;45067;44.654;20.200;2023-03-14T14:49:05;14.13;;;6.90;;
59294;SDS011;45067;44.654;20.200;2023-03-14T14:51:32;16.83;;;7.30;;
59294;SDS011;45067;44.654;20.200;2023-03-14T14:54:12;10.50;;;6.30;;
59294;SDS011;45067;44.654;20.200;2023-03-14T14:56:38;11.68;;;5.65;;
59294;SDS011;45067;44.654;20.200;2023-03-14T14:59:05;10.73;;;5.78;;
59294;SDS011;45067;44.654;20.200;2023-03-14T15:01:38;13.15;;;6.72;;
59294;SDS011;45067;44.654;20.200;2023-03-14T15:04:09;9.40;;;5.80;;
59294;SDS011;45067;44.654;20.200;2023-03-14T15:06:36;12.57;;;6.38;;
59294;SDS011;45067;44.654;20.200;2023-03-14T15:09:02;9.07;;;5.78;;
59294;SDS011;45067;44.654;20.200;2023-03-14T15:11:28;9.40;;;5.38;;
59294;SDS011;45067;44.654;20.200;2023-03-14T15:13:54;12.10;;;6.20;;
59294;SDS011;45067;44.654;20.200;2023-03-14T15:16:22;9.30;;;5.35;;
59294;SDS011;45067;44.654;20.200;2023-03-14T15:24:55;10.80;;;5.22;;
59294;SDS011;45067;44.654;20.200;2023-03-14T15:27:21;12.65;;;5.55;;
59294;SDS011;45067;44.654;20.200;2023-03-14T15:29:48;11.25;;;6.00;;
59294;SDS011;45067;44.654;20.200;2023-03-14T15:32:15;10.38;;;6.28;;
59294;SDS011;45067;44.654;20.200;2023-03-14T15:34:41;8.75;;;5.72;;
59294;SDS011;45067;44.654;20.200;2023-03-14T15:37:11;10.68;;;5.68;;
59294;SDS011;45067;44.654;20.200;2023-03-14T15:39:37;11.70;;;6.05;;
59294;SDS011;45067;44.654;20.200;2023-03-14T15:42:03;11.55;;;5.68;;
59294;SDS011;45067;44.654;20.200;2023-03-14T15:44:29;8.98;;;5.68;;
59294;SDS011;45067;44.654;20.200;2023-03-14T15:46:55;11.98;;;6.35;;
59294;SDS011;45067;44.654;20.200;2023-03-14T15:49:21;10.40;;;6.47;;
59294;SDS011;45067;44.654;20.200;2023-03-14T15:51:47;13.68;;;6.25;;
59294;SDS011;45067;44.654;20.200;2023-03-14T15:54:14;12.80;;;5.80;;
59294;SDS011;45067;44.654;20.200;2023-03-14T15:56:40;10.48;;;6.13;;
59294;SDS011;45067;44.654;20.200;2023-03-14T15:59:06;9.48;;;6.05;;
59294;SDS011;45067;44.654;20.200;2023-03-14T16:01:32;10.95;;;5.93;;
59294;SDS011;45067;44.654;20.200;2023-03-14T16:03:58;12.98;;;6.70;;
59294;SDS011;45067;44.654;20.200;2023-03-14T16:09:46;9.15;;;6.15;;
59294;SDS011;45067;44.654;20.200;2023-03-14T16:12:12;15.20;;;7.80;;
59294;SDS011;45067;44.654;20.200;2023-03-14T16:14:38;10.93;;;6.80;;
59294;SDS011;45067;44.654;20.200;2023-03-14T16:17:07;15.90;;;7.50;;
59294;SDS011;45067;44.654;20.200;2023-03-14T16:19:36;10.98;;;6.72;;
59294;SDS011;45067;44.654;20.200;2023-03-14T16:22:02;13.05;;;7.53;;
59294;SDS011;45067;44.654;20.200;2023-03-14T16:24:28;12.10;;;7.05;;
59294;SDS011;45067;44.654;20.200;2023-03-14T16:26:54;13.15;;;7.85;;
59294;SDS011;45067;44.654;20.200;2023-03-14T16:29:20;14.35;;;8.15;;
59294;SDS011;45067;44.654;20.200;2023-03-14T16:31:46;12.82;;;7.65;;
59294;SDS011;45067;44.654;20.200;2023-03-14T16:34:12;14.55;;;9.35;;
59294;SDS011;45067;44.654;20.200;2023-03-14T16:36:38;18.33;;;10.50;;
59294;SDS011;45067;44.654;20.200;2023-03-14T16:39:05;13.65;;;9.10;;
59294;SDS011;45067;44.654;20.200;2023-03-14T16:41:31;21.70;;;11.90;;
59294;SDS011;45067;44.654;20.200;2023-03-14T16:43:57;15.60;;;9.57;;
59294;SDS011;45067;44.654;20.200;2023-03-14T16:46:23;15.20;;;8.80;;
59294;SDS011;45067;44.654;20.200;2023-03-14T16:48:52;15.55;;;8.73;;
59294;SDS011;45067;44.654;20.200;2023-03-14T16:54:22;14.93;;;8.60;;
59294;SDS011;45067;44.654;20.200;2023-03-14T16:56:48;13.50;;;8.00;;
59294;SDS011;45067;44.654;20.200;2023-03-14T16:59:14;15.10;;;8.48;;
59294;SDS011;45067;44.654;20.200;2023-03-14T17:01:40;12.68;;;8.07;;
59294;SDS011;45067;44.654;20.200;2023-03-14T17:04:08;16.20;;;8.88;;
59294;SDS011;45067;44.654;20.200;2023-03-14T17:09:37;20.42;;;10.52;;
59294;SDS011;45067;44.654;20.200;2023-03-14T17:12:04;30.80;;;13.65;;
59294;SDS011;45067;44.654;20.200;2023-03-14T17:14:30;20.17;;;9.80;;
59294;SDS011;45067;44.654;20.200;2023-03-14T17:16:56;16.52;;;8.73;;
59294;SDS011;45067;44.654;20.200;2023-03-14T17:19:22;13.80;;;7.72;;